createdAt,value
2023-04-27T00:00:00.663Z,7.00
2023-04-27T00:02:28.867Z,7.00
2023-04-27T00:04:57.850Z,6.70
2023-04-27T00:07:26.742Z,7.10
2023-04-27T00:09:54.849Z,7.20
2023-04-27T00:12:22.941Z,7.50
2023-04-27T00:14:51.056Z,7.50
2023-04-27T00:17:19.129Z,7.40
2023-04-27T00:19:48.638Z,7.60
2023-04-27T00:22:16.604Z,7.00
2023-04-27T00:24:44.678Z,7.60
2023-04-27T00:27:13.735Z,7.90
2023-04-27T00:29:45.009Z,7.10
2023-04-27T00:32:13.050Z,7.60
2023-04-27T00:34:41.096Z,7.80
2023-04-27T00:37:09.106Z,7.30
2023-04-27T00:39:37.187Z,6.60
2023-04-27T00:42:05.899Z,6.20
2023-04-27T00:44:33.922Z,6.80
2023-04-27T00:47:03.859Z,6.50
2023-04-27T00:49:32.748Z,6.60
2023-04-27T00:52:00.905Z,6.40
2023-04-27T00:54:29.707Z,6.10
2023-04-27T00:56:59.748Z,6.30
2023-04-27T00:59:29.172Z,6.10
2023-04-27T01:01:57.298Z,6.30
2023-04-27T01:04:26.135Z,5.70
2023-04-27T01:06:54.951Z,5.60
2023-04-27T01:09:23.349Z,5.60
2023-04-27T01:11:51.383Z,5.70
2023-04-27T01:14:19.344Z,5.60
2023-04-27T01:16:47.655Z,5.50
2023-04-27T01:19:16.005Z,5.20
2023-04-27T01:21:44.425Z,5.30
2023-04-27T01:24:12.498Z,5.10
2023-04-27T01:26:40.640Z,5.30
2023-04-27T01:29:08.754Z,5.40
2023-04-27T01:31:36.839Z,4.80
2023-04-27T01:34:04.971Z,5.30
2023-04-27T01:36:32.993Z,5.40
2023-04-27T01:39:01.116Z,5.80
2023-04-27T01:41:29.028Z,5.80
2023-04-27T01:43:57.060Z,5.80
2023-04-27T01:46:25.054Z,6.10
2023-04-27T01:48:53.008Z,6.10
2023-04-27T01:51:21.582Z,5.90
2023-04-27T01:53:50.028Z,5.60
2023-04-27T01:56:18.024Z,5.90
2023-04-27T01:58:46.507Z,5.80
2023-04-27T02:01:14.822Z,6.00
2023-04-27T02:03:43.095Z,6.00
2023-04-27T02:06:11.339Z,5.70
2023-04-27T02:08:40.644Z,5.30
2023-04-27T02:11:09.840Z,5.60
2023-04-27T02:13:37.853Z,4.70
2023-04-27T02:16:06.514Z,5.30
2023-04-27T02:18:35.153Z,5.20
2023-04-27T02:21:09.597Z,5.20
2023-04-27T02:23:37.832Z,7.50
2023-04-27T02:26:06.088Z,7.00
2023-04-27T02:28:34.083Z,6.50
2023-04-27T02:31:02.969Z,6.40
2023-04-27T02:33:31.026Z,5.50
2023-04-27T02:35:59.029Z,6.00
2023-04-27T02:38:30.454Z,6.70
2023-04-27T02:40:58.459Z,6.00
2023-04-27T02:43:27.458Z,6.40
2023-04-27T02:45:55.573Z,6.60
2023-04-27T02:48:23.486Z,7.10
2023-04-27T02:50:52.188Z,7.00
2023-04-27T02:53:20.251Z,6.70
2023-04-27T02:55:49.953Z,6.50
2023-04-27T02:58:18.116Z,5.80
2023-04-27T03:00:46.253Z,5.90
2023-04-27T03:03:15.207Z,6.20
2023-04-27T03:05:43.451Z,5.60
2023-04-27T03:08:11.427Z,5.60
2023-04-27T03:10:39.391Z,7.50
2023-04-27T03:13:07.338Z,5.30
2023-04-27T03:15:35.546Z,5.10
2023-04-27T03:18:04.290Z,4.70
2023-04-27T03:20:32.391Z,4.90
2023-04-27T03:23:00.559Z,4.60
2023-04-27T03:25:28.638Z,4.50
2023-04-27T03:27:57.006Z,4.50
2023-04-27T03:30:24.946Z,4.50
2023-04-27T03:32:52.933Z,4.80
2023-04-27T03:35:20.966Z,4.60
2023-04-27T03:37:48.949Z,4.50
2023-04-27T03:40:16.965Z,4.90
2023-04-27T03:42:45.028Z,5.10
2023-04-27T03:45:13.008Z,5.40
2023-04-27T03:47:41.403Z,6.20
2023-04-27T03:50:10.065Z,10.70
2023-04-27T03:52:38.027Z,12.40
2023-04-27T03:55:07.181Z,15.70
2023-04-27T03:57:35.740Z,18.20
2023-04-27T04:00:07.826Z,20.10
2023-04-27T04:02:40.921Z,26.30
2023-04-27T04:05:09.466Z,25.60
2023-04-27T04:07:37.769Z,17.30
2023-04-27T04:10:07.081Z,13.90
2023-04-27T04:12:35.080Z,8.30
2023-04-27T04:15:06.611Z,9.10
2023-04-27T04:17:35.021Z,10.40
2023-04-27T04:20:08.105Z,25.60
2023-04-27T04:22:36.725Z,23.80
2023-04-27T04:25:05.532Z,13.60
2023-04-27T04:27:33.688Z,12.10
2023-04-27T04:30:01.979Z,11.90
2023-04-27T04:32:30.123Z,10.00
2023-04-27T04:34:59.187Z,9.40
2023-04-27T04:37:28.210Z,7.40
2023-04-27T04:39:56.743Z,6.60
2023-04-27T04:42:26.573Z,6.50
2023-04-27T04:44:54.738Z,6.00
2023-04-27T04:47:23.369Z,5.40
2023-04-27T04:49:52.940Z,5.60
2023-04-27T04:52:21.392Z,4.50
2023-04-27T04:54:53.443Z,4.00
2023-04-27T04:57:22.477Z,3.60
2023-04-27T04:59:51.024Z,4.00
2023-04-27T05:02:19.072Z,3.90
2023-04-27T05:04:47.513Z,3.70
2023-04-27T05:07:16.674Z,3.60
2023-04-27T05:09:46.645Z,3.40
2023-04-27T05:12:14.578Z,3.50
2023-04-27T05:14:43.871Z,3.90
2023-04-27T05:17:12.611Z,3.70
2023-04-27T05:19:41.232Z,3.50
2023-04-27T05:22:09.215Z,3.40
2023-04-27T05:24:37.397Z,3.40
2023-04-27T05:27:05.463Z,3.60
2023-04-27T05:29:33.864Z,4.10
2023-04-27T05:32:01.918Z,3.70
2023-04-27T05:34:30.043Z,3.60
2023-04-27T05:36:58.071Z,3.70
2023-04-27T05:39:26.434Z,3.80
2023-04-27T05:41:54.726Z,3.50
2023-04-27T05:44:25.437Z,3.50
2023-04-27T05:46:53.353Z,3.40
2023-04-27T05:49:21.765Z,3.20
2023-04-27T05:51:49.850Z,3.60
2023-04-27T05:54:17.774Z,3.40
2023-04-27T05:56:46.042Z,4.20
2023-04-27T05:59:14.375Z,3.80
2023-04-27T06:01:42.545Z,3.50
2023-04-27T06:04:10.683Z,3.10
2023-04-27T06:06:38.688Z,3.00
2023-04-27T06:09:06.715Z,3.00
2023-04-27T06:11:34.931Z,2.80
2023-04-27T06:14:03.098Z,3.20
2023-04-27T06:16:31.163Z,3.10
2023-04-27T06:18:59.240Z,3.20
2023-04-27T06:21:28.344Z,3.20
2023-04-27T06:23:56.406Z,3.80
2023-04-27T06:26:24.376Z,3.30
2023-04-27T06:28:52.507Z,3.30
2023-04-27T06:31:20.866Z,2.80
2023-04-27T06:33:48.995Z,2.60
2023-04-27T06:36:17.003Z,2.60
2023-04-27T06:38:44.952Z,2.60
2023-04-27T06:41:13.122Z,2.70
2023-04-27T06:43:41.176Z,2.80
2023-04-27T06:46:09.183Z,3.10
2023-04-27T06:48:37.212Z,3.00
2023-04-27T06:51:05.705Z,3.40
2023-04-27T06:53:34.074Z,3.30
2023-04-27T06:56:02.597Z,3.30
2023-04-27T06:58:30.578Z,2.80
2023-04-27T07:00:58.547Z,3.00
2023-04-27T07:03:27.010Z,3.10
2023-04-27T07:05:56.770Z,3.20
2023-04-27T07:08:24.965Z,3.70
2023-04-27T07:10:53.071Z,3.50
2023-04-27T07:13:21.097Z,3.10
2023-04-27T07:15:54.055Z,2.70
2023-04-27T07:18:22.001Z,2.80
2023-04-27T07:20:50.017Z,3.00
2023-04-27T07:23:18.287Z,3.20
2023-04-27T07:25:46.450Z,2.90
2023-04-27T07:28:15.302Z,2.80
2023-04-27T07:30:43.315Z,3.10
2023-04-27T07:33:11.649Z,3.20
2023-04-27T07:35:39.722Z,3.20
2023-04-27T07:38:08.639Z,3.10
2023-04-27T07:40:37.158Z,2.90
2023-04-27T07:43:05.662Z,3.10
2023-04-27T07:45:33.832Z,3.20
2023-04-27T07:48:02.268Z,3.10
2023-04-27T07:50:31.057Z,3.50
2023-04-27T07:52:59.857Z,2.80
2023-04-27T07:55:28.575Z,2.70
2023-04-27T07:57:57.466Z,3.10
2023-04-27T08:00:26.916Z,2.90
2023-04-27T08:02:55.383Z,2.50
2023-04-27T08:05:23.976Z,2.40
2023-04-27T08:07:54.535Z,2.70
2023-04-27T08:10:23.575Z,3.20
2023-04-27T08:12:51.702Z,4.00
2023-04-27T08:15:20.987Z,2.80
2023-04-27T08:17:48.985Z,3.40
2023-04-27T08:20:17.026Z,2.90
2023-04-27T08:22:44.987Z,2.60
2023-04-27T08:25:12.949Z,2.70
2023-04-27T08:27:41.323Z,2.20
2023-04-27T08:30:10.053Z,3.00
2023-04-27T08:32:38.292Z,3.30
2023-04-27T08:35:07.253Z,3.10
2023-04-27T08:37:35.284Z,2.70
2023-04-27T08:40:08.336Z,2.50
2023-04-27T08:42:36.505Z,2.70
2023-04-27T08:45:08.487Z,2.80
2023-04-27T08:47:43.506Z,2.90
2023-04-27T08:50:13.072Z,3.10
2023-04-27T08:52:45.085Z,3.60
2023-04-27T08:55:15.109Z,2.40
2023-04-27T08:57:58.442Z,2.20
2023-04-27T09:00:27.403Z,2.50
2023-04-27T09:02:55.722Z,2.40
2023-04-27T09:05:23.973Z,2.00
2023-04-27T09:08:05.248Z,2.10
2023-04-27T09:10:51.163Z,1.90
2023-04-27T09:13:19.166Z,1.90
2023-04-27T09:15:48.553Z,1.80
2023-04-27T09:18:20.253Z,1.40
2023-04-27T09:20:53.761Z,2.00
2023-04-27T09:23:31.976Z,2.30
2023-04-27T09:26:01.992Z,2.30
2023-04-27T09:28:32.121Z,2.00
2023-04-27T09:31:01.901Z,2.00
2023-04-27T09:33:31.925Z,1.70
2023-04-27T09:36:02.429Z,2.50
2023-04-27T09:38:31.614Z,2.30
2023-04-27T09:41:00.852Z,2.40
2023-04-27T09:43:30.930Z,2.60
2023-04-27T09:45:59.196Z,2.40
2023-04-27T09:48:27.283Z,2.60
2023-04-27T09:50:55.418Z,6.20
2023-04-27T09:53:32.720Z,8.70
2023-04-27T09:56:09.955Z,5.40
2023-04-27T09:59:02.492Z,5.10
2023-04-27T10:01:43.619Z,4.90
2023-04-27T10:04:36.775Z,3.20
2023-04-27T10:07:07.788Z,3.80
2023-04-27T10:09:40.265Z,3.40
2023-04-27T10:12:28.281Z,3.40
2023-04-27T10:14:58.388Z,4.20
2023-04-27T10:17:30.897Z,4.50
2023-04-27T10:20:00.061Z,4.50
2023-04-27T10:22:48.396Z,4.40
2023-04-27T10:25:26.411Z,3.20
2023-04-27T10:28:03.320Z,3.20
2023-04-27T10:30:34.066Z,4.40
2023-04-27T10:33:10.668Z,3.70
2023-04-27T10:35:40.932Z,3.30
2023-04-27T10:38:15.441Z,3.40
2023-04-27T10:40:58.259Z,3.30
2023-04-27T10:43:28.890Z,3.20
2023-04-27T10:46:14.055Z,2.80
2023-04-27T10:48:43.785Z,2.80
2023-04-27T10:51:17.624Z,2.80
2023-04-27T10:53:46.061Z,2.70
2023-04-27T10:56:14.541Z,3.00
2023-04-27T10:58:48.920Z,2.90
2023-04-27T11:01:27.173Z,2.60
2023-04-27T11:04:01.966Z,2.60
2023-04-27T11:06:30.843Z,2.70
2023-04-27T11:08:59.554Z,3.00
2023-04-27T11:11:27.634Z,2.90
2023-04-27T11:13:58.477Z,2.80
2023-04-27T11:16:26.975Z,2.70
2023-04-27T11:18:55.050Z,3.20
2023-04-27T11:21:23.702Z,2.80
2023-04-27T11:23:51.782Z,2.50
2023-04-27T11:26:22.078Z,3.40
2023-04-27T11:28:59.269Z,2.90
2023-04-27T11:31:29.225Z,3.10
2023-04-27T11:33:57.310Z,3.10
2023-04-27T11:36:26.979Z,3.30
2023-04-27T11:38:59.304Z,2.90
2023-04-27T11:41:37.602Z,2.60
2023-04-27T11:44:10.264Z,2.00
2023-04-27T11:46:39.507Z,2.20
2023-04-27T11:49:10.685Z,3.00
2023-04-27T11:51:40.155Z,2.70
2023-04-27T11:54:09.994Z,3.00
2023-04-27T11:56:42.364Z,3.80
2023-04-27T11:59:27.745Z,3.80
2023-04-27T12:01:55.782Z,3.80
2023-04-27T12:04:24.109Z,3.90
2023-04-27T12:06:52.301Z,4.00
2023-04-27T12:09:20.333Z,4.60
2023-04-27T12:11:48.430Z,5.40
2023-04-27T12:14:16.835Z,4.50
2023-04-27T12:16:45.274Z,5.10
2023-04-27T12:19:13.530Z,4.70
2023-04-27T12:21:42.909Z,4.40
2023-04-27T12:24:11.360Z,4.20
2023-04-27T12:26:39.985Z,4.60
2023-04-27T12:29:08.068Z,4.70
2023-04-27T12:31:36.493Z,3.50
2023-04-27T12:34:04.724Z,3.70
2023-04-27T12:36:33.095Z,4.00
2023-04-27T12:39:15.463Z,3.90
2023-04-27T12:41:44.736Z,1.90
2023-04-27T12:44:14.221Z,2.70
2023-04-27T12:46:43.716Z,2.50
2023-04-27T12:49:12.728Z,2.90
2023-04-27T12:51:41.290Z,2.40
2023-04-27T12:54:10.794Z,2.00
2023-04-27T12:56:38.962Z,2.20
2023-04-27T12:59:07.149Z,2.10
2023-04-27T13:01:35.614Z,1.80
2023-04-27T13:04:06.044Z,1.70
2023-04-27T13:06:34.454Z,1.70
2023-04-27T13:09:02.853Z,2.00
2023-04-27T13:11:31.060Z,2.20
2023-04-27T13:13:59.508Z,2.40
2023-04-27T13:16:27.996Z,2.30
2023-04-27T13:18:56.620Z,2.20
2023-04-27T13:21:24.774Z,2.20
2023-04-27T13:23:54.938Z,2.00
2023-04-27T13:26:23.076Z,2.10
2023-04-27T13:28:51.133Z,2.30
2023-04-27T13:31:19.764Z,4.00
2023-04-27T13:33:47.839Z,3.20
2023-04-27T13:36:16.044Z,3.10
2023-04-27T13:38:44.103Z,3.90
2023-04-27T13:41:12.207Z,3.40
2023-04-27T13:43:40.704Z,2.40
2023-04-27T13:46:08.701Z,2.90
2023-04-27T13:48:36.742Z,2.30
2023-04-27T13:51:04.795Z,2.30
2023-04-27T13:53:32.884Z,1.80
2023-04-27T13:56:01.249Z,1.70
2023-04-27T13:58:29.422Z,1.50
2023-04-27T14:00:58.386Z,1.30
2023-04-27T14:03:26.722Z,1.30
2023-04-27T14:05:54.962Z,1.40
2023-04-27T14:08:23.026Z,1.60
2023-04-27T14:10:51.079Z,1.50
2023-04-27T14:13:19.864Z,1.60
2023-04-27T14:15:47.884Z,1.50
2023-04-27T14:18:16.040Z,1.80
2023-04-27T14:20:44.809Z,1.60
2023-04-27T14:23:13.031Z,1.70
2023-04-27T14:25:41.516Z,1.50
2023-04-27T14:28:13.673Z,1.60
2023-04-27T14:30:41.816Z,1.60
2023-04-27T14:33:09.941Z,1.50
2023-04-27T14:35:38.176Z,1.50
2023-04-27T14:38:06.464Z,1.30
2023-04-27T14:40:34.893Z,1.20
2023-04-27T14:43:02.984Z,1.70
2023-04-27T14:45:43.625Z,1.60
2023-04-27T14:48:18.636Z,1.40
2023-04-27T14:50:47.062Z,1.80
2023-04-27T14:53:15.055Z,1.80
2023-04-27T14:55:46.022Z,1.90
2023-04-27T14:58:14.452Z,2.30
2023-04-27T15:00:42.517Z,2.80
2023-04-27T15:03:10.675Z,2.80
2023-04-27T15:05:38.870Z,2.30
2023-04-27T15:08:06.851Z,2.30
2023-04-27T15:10:34.842Z,2.50
2023-04-27T15:13:02.999Z,2.40
2023-04-27T15:15:31.051Z,2.50
2023-04-27T15:17:59.199Z,2.70
2023-04-27T15:20:27.779Z,2.70
2023-04-27T15:22:55.817Z,2.80
2023-04-27T15:25:23.839Z,3.40
2023-04-27T15:27:51.901Z,3.70
2023-04-27T15:30:19.971Z,3.70
2023-04-27T15:32:48.365Z,3.50
2023-04-27T15:35:16.617Z,3.50
2023-04-27T15:37:44.698Z,3.70
2023-04-27T15:40:13.044Z,3.70
2023-04-27T15:42:41.133Z,3.40
2023-04-27T15:45:10.282Z,3.30
2023-04-27T15:47:38.752Z,2.80
2023-04-27T15:50:08.152Z,3.10
2023-04-27T15:52:36.292Z,2.70
2023-04-27T15:55:05.130Z,3.40
2023-04-27T15:57:33.150Z,2.80
2023-04-27T16:00:01.408Z,3.30
2023-04-27T16:02:29.540Z,2.80
2023-04-27T16:04:57.674Z,2.60
2023-04-27T16:07:25.747Z,2.10
2023-04-27T16:09:54.087Z,2.50
2023-04-27T16:12:22.178Z,2.30
2023-04-27T16:14:52.136Z,2.30
2023-04-27T16:17:20.309Z,2.40
2023-04-27T16:19:48.414Z,2.50
2023-04-27T16:22:17.131Z,2.50
2023-04-27T16:24:45.406Z,2.40
2023-04-27T16:27:13.478Z,2.40
2023-04-27T16:29:41.660Z,2.30
2023-04-27T16:32:11.078Z,2.20
2023-04-27T16:34:39.348Z,2.60
2023-04-27T16:37:07.384Z,2.70
2023-04-27T16:39:35.905Z,2.50
2023-04-27T16:42:04.897Z,2.90
2023-04-27T16:44:32.953Z,3.30
2023-04-27T16:47:01.007Z,3.10
2023-04-27T16:49:28.980Z,2.60
2023-04-27T16:51:56.901Z,2.70
2023-04-27T16:54:24.818Z,3.00
2023-04-27T16:56:54.603Z,3.10
2023-04-27T16:59:23.414Z,2.70
2023-04-27T17:01:51.600Z,2.60
2023-04-27T17:04:20.224Z,2.40
2023-04-27T17:06:48.698Z,2.80
2023-04-27T17:09:16.998Z,2.30
2023-04-27T17:11:45.766Z,2.60
2023-04-27T17:14:14.322Z,2.70
2023-04-27T17:16:42.468Z,2.90
2023-04-27T17:19:10.646Z,3.00
2023-04-27T17:21:38.817Z,2.80
2023-04-27T17:24:09.454Z,3.00
2023-04-27T17:26:38.438Z,2.40
2023-04-27T17:29:07.032Z,2.80
2023-04-27T17:31:35.086Z,2.90
2023-04-27T17:34:03.302Z,2.60
2023-04-27T17:36:31.666Z,3.10
2023-04-27T17:39:01.347Z,3.00
2023-04-27T17:41:29.386Z,2.90
2023-04-27T17:43:58.370Z,2.90
2023-04-27T17:46:26.514Z,3.20
2023-04-27T17:48:54.563Z,3.60
2023-04-27T17:51:22.598Z,3.60
2023-04-27T17:53:50.505Z,3.20
2023-04-27T17:56:18.464Z,3.60
2023-04-27T17:58:46.434Z,3.40
2023-04-27T18:01:14.343Z,3.10
2023-04-27T18:03:42.527Z,3.30
2023-04-27T18:06:10.871Z,4.10
2023-04-27T18:08:38.926Z,4.10
2023-04-27T18:11:07.064Z,3.80
2023-04-27T18:13:35.164Z,4.50
2023-04-27T18:16:03.293Z,4.10
2023-04-27T18:18:31.476Z,4.20
2023-04-27T18:20:59.688Z,4.10
2023-04-27T18:23:27.649Z,3.80
2023-04-27T18:26:00.011Z,4.10
2023-04-27T18:28:28.000Z,4.20
2023-04-27T18:30:56.091Z,4.40
2023-04-27T18:33:24.107Z,4.60
2023-04-27T18:35:52.407Z,4.90
2023-04-27T18:38:20.390Z,5.40
2023-04-27T18:40:48.440Z,4.80
2023-04-27T18:43:16.714Z,5.30
2023-04-27T18:45:44.719Z,5.90
2023-04-27T18:48:12.773Z,5.60
2023-04-27T18:50:40.927Z,5.70
2023-04-27T18:53:08.891Z,5.20
2023-04-27T18:55:36.864Z,4.90
2023-04-27T18:58:04.904Z,4.60
2023-04-27T19:00:33.047Z,4.70
2023-04-27T19:03:01.207Z,5.30
2023-04-27T19:05:29.503Z,5.50
2023-04-27T19:07:57.763Z,5.90
2023-04-27T19:10:25.674Z,6.10
2023-04-27T19:12:54.279Z,5.60
2023-04-27T19:15:22.371Z,5.50
2023-04-27T19:17:58.530Z,5.90
2023-04-27T19:20:34.775Z,5.30
2023-04-27T19:23:03.267Z,5.90
2023-04-27T19:25:31.435Z,5.90
2023-04-27T19:27:59.435Z,5.90
2023-04-27T19:30:29.332Z,6.40
2023-04-27T19:32:57.607Z,6.50
2023-04-27T19:35:26.675Z,6.30
2023-04-27T19:37:54.661Z,6.00
2023-04-27T19:40:22.630Z,6.70
2023-04-27T19:42:50.580Z,7.00
2023-04-27T19:45:18.678Z,7.60
2023-04-27T19:47:48.060Z,7.60
2023-04-27T19:50:17.587Z,9.20
2023-04-27T19:52:45.783Z,11.30
2023-04-27T19:55:14.685Z,10.60
2023-04-27T19:57:42.588Z,11.60
2023-04-27T20:00:12.311Z,10.60
2023-04-27T20:02:43.452Z,17.40
2023-04-27T20:05:13.437Z,19.20
2023-04-27T20:07:42.851Z,19.50
2023-04-27T20:10:11.303Z,26.80
2023-04-27T20:12:47.966Z,18.90
2023-04-27T20:15:23.607Z,17.30
2023-04-27T20:17:52.687Z,12.80
2023-04-27T20:20:21.239Z,11.50
2023-04-27T20:22:49.619Z,10.50
2023-04-27T20:25:19.725Z,10.80
2023-04-27T20:27:47.800Z,9.20
2023-04-27T20:30:16.178Z,8.90
2023-04-27T20:32:44.858Z,8.90
2023-04-27T20:35:12.931Z,7.50
2023-04-27T20:37:43.668Z,6.60
2023-04-27T20:40:16.738Z,7.20
2023-04-27T20:42:45.970Z,7.60
2023-04-27T20:45:14.056Z,8.30
2023-04-27T20:47:42.319Z,9.00
2023-04-27T20:50:10.979Z,9.80
2023-04-27T20:52:39.052Z,12.00
2023-04-27T20:55:07.629Z,14.30
2023-04-27T20:57:35.762Z,13.50
2023-04-27T21:00:04.353Z,11.10
2023-04-27T21:02:32.326Z,10.50
2023-04-27T21:05:00.502Z,7.30
2023-04-27T21:07:28.599Z,8.40
2023-04-27T21:09:56.504Z,8.30
2023-04-27T21:12:24.445Z,8.80
2023-04-27T21:14:52.612Z,9.10
2023-04-27T21:17:20.677Z,9.10
2023-04-27T21:19:48.650Z,9.40
2023-04-27T21:22:16.708Z,9.50
2023-04-27T21:24:44.704Z,9.50
2023-04-27T21:27:12.855Z,9.80
2023-04-27T21:29:40.874Z,18.00
2023-04-27T21:32:08.801Z,16.50
2023-04-27T21:34:37.063Z,14.80
2023-04-27T21:37:05.034Z,11.10
2023-04-27T21:39:33.007Z,9.20
2023-04-27T21:42:01.175Z,8.90
2023-04-27T21:44:29.091Z,9.70
2023-04-27T21:46:57.298Z,9.80
2023-04-27T21:49:25.195Z,9.20
2023-04-27T21:51:53.313Z,9.10
2023-04-27T21:54:21.713Z,9.00
2023-04-27T21:56:49.633Z,9.10
2023-04-27T21:59:17.573Z,9.50
2023-04-27T22:01:45.662Z,8.60
2023-04-27T22:04:13.899Z,8.10
2023-04-27T22:06:42.754Z,8.40
2023-04-27T22:09:12.369Z,8.20
2023-04-27T22:11:40.581Z,7.60
2023-04-27T22:14:08.658Z,7.60
2023-04-27T22:16:36.835Z,8.20
2023-04-27T22:19:05.207Z,8.90
2023-04-27T22:21:33.372Z,9.60
2023-04-27T22:24:01.447Z,10.50
2023-04-27T22:26:29.725Z,12.60
2023-04-27T22:28:57.666Z,19.80
2023-04-27T22:31:25.920Z,21.60
2023-04-27T22:33:54.142Z,25.80
2023-04-27T22:36:22.132Z,18.00
2023-04-27T22:38:51.206Z,17.60
2023-04-27T22:41:19.374Z,15.10
2023-04-27T22:43:47.346Z,16.80
2023-04-27T22:46:15.311Z,16.40
2023-04-27T22:48:43.996Z,12.80
2023-04-27T22:51:12.479Z,13.90
2023-04-27T22:53:40.758Z,14.20
2023-04-27T22:56:08.925Z,14.10
2023-04-27T22:58:36.890Z,14.10
2023-04-27T23:01:04.986Z,11.30
2023-04-27T23:03:33.259Z,10.80
2023-04-27T23:06:01.832Z,10.10
2023-04-27T23:08:29.793Z,10.50
2023-04-27T23:10:57.719Z,10.40
2023-04-27T23:13:28.601Z,10.50
2023-04-27T23:15:56.964Z,10.80
2023-04-27T23:18:24.913Z,11.00
2023-04-27T23:20:54.808Z,10.50
2023-04-27T23:23:22.805Z,10.30
2023-04-27T23:25:50.783Z,9.80
2023-04-27T23:28:18.858Z,9.30
2023-04-27T23:30:53.030Z,9.80
2023-04-27T23:33:21.951Z,9.00
2023-04-27T23:35:50.032Z,9.20
2023-04-27T23:38:17.929Z,9.40
2023-04-27T23:40:45.878Z,9.20
2023-04-27T23:43:14.011Z,8.40
2023-04-27T23:45:42.006Z,8.90
2023-04-27T23:48:09.958Z,9.40
2023-04-27T23:50:37.948Z,8.70
2023-04-27T23:53:05.974Z,8.20
2023-04-27T23:55:35.015Z,8.00
2023-04-27T23:58:03.807Z,8.50
